Time;durP1;ratioP1;P1;durP2;ratioP2;P2;SDS_P1;SDS_P2;PMS_P1;PMS_P2;Temp;Humidity;BMP_temperature;BMP_pressure;BME280_temperature;BME280_humidity;BME280_pressure;Samples;Min_cycle;Max_cycle;Signal;HPM_P1;HPM_P2
2022/12/16 00:04:44;;;;;;;68.40;25.00;;;;;;;-1.76;96.85;97913.71;213898;1312;23732;-77
2022/12/16 00:09:55;;;;;;;71.00;24.90;;;;;;;-1.74;97.25;97922.52;213738;1312;22522;-78
2022/12/16 00:15:01;;;;;;;67.40;25.30;;;;;;;-1.72;97.02;97918.59;213738;1312;22981;-77
2022/12/16 00:20:04;;;;;;;59.80;23.40;;;;;;;-1.70;97.07;97907.86;213699;1312;24231;-78
2022/12/16 00:25:07;;;;;;;64.30;25.90;;;;;;;-1.70;97.05;97904.96;213915;1312;22609;-78
2022/12/16 00:30:09;;;;;;;98.20;33.80;;;;;;;-1.70;96.96;97894.41;213777;1312;22608;-77
2022/12/16 00:35:11;;;;;;;84.30;30.40;;;;;;;-1.68;96.87;97879.91;213827;1312;22480;-77
2022/12/16 00:40:12;;;;;;;73.80;28.80;;;;;;;-1.69;96.70;97878.25;213605;1312;24287;-77
2022/12/16 00:45:14;;;;;;;59.70;24.80;;;;;;;-1.72;96.93;97881.24;213707;1309;22796;-77
2022/12/16 00:50:17;;;;;;;48.40;20.90;;;;;;;-1.76;96.84;97881.11;213734;1312;23536;-77
2022/12/16 00:55:20;;;;;;;63.00;26.20;;;;;;;-1.80;96.75;97883.08;213898;1306;24298;-78
2022/12/16 01:00:22;;;;;;;50.60;21.50;;;;;;;-1.80;96.80;97871.94;213530;1312;24261;-78
2022/12/16 01:05:27;;;;;;;43.60;17.10;;;;;;;-1.83;96.55;97881.73;213742;1312;23745;-77
2022/12/16 01:10:29;;;;;;;55.40;22.80;;;;;;;-1.85;97.02;97866.09;213634;1312;22500;-77
2022/12/16 01:15:30;;;;;;;45.50;18.80;;;;;;;-1.84;96.99;97849.06;213718;1312;22465;-77
2022/12/16 01:20:33;;;;;;;49.10;19.30;;;;;;;-1.84;96.76;97838.88;213864;1312;22494;-77
2022/12/16 01:25:35;;;;;;;56.60;21.10;;;;;;;-1.88;96.54;97840.99;213725;1312;24235;-76
2022/12/16 01:30:36;;;;;;;43.40;18.20;;;;;;;-1.89;96.77;97835.42;213756;1312;25381;-77
2022/12/16 01:35:38;;;;;;;41.60;16.40;;;;;;;-1.89;96.72;97822.14;213850;1312;22504;-77
2022/12/16 01:40:57;;;;;;;36.60;14.90;;;;;;;-1.89;96.67;97814.77;213858;1312;23784;-78
2022/12/16 01:46:09;;;;;;;49.10;18.30;;;;;;;-1.91;96.83;97791.28;213624;1312;25444;-78
2022/12/16 01:51:23;;;;;;;44.60;18.40;;;;;;;-1.96;96.47;97782.45;213846;1312;24332;-78
2022/12/16 01:56:29;;;;;;;51.50;20.10;;;;;;;-1.99;96.65;97779.02;213605;1312;25345;-78
2022/12/16 02:01:31;;;;;;;45.90;18.50;;;;;;;-2.02;96.60;97778.48;213903;1312;23500;-77
2022/12/16 02:06:33;;;;;;;42.00;17.00;;;;;;;-2.05;96.59;97779.11;213761;1312;22531;-77
2022/12/16 02:12:07;;;;;;;43.90;16.40;;;;;;;-2.05;97.04;97764.58;213645;1312;24793;-77
2022/12/16 02:17:12;;;;;;;53.40;21.50;;;;;;;-2.08;96.81;97764.14;213799;1312;25459;-78
2022/12/16 02:23:01;;;;;;;62.40;22.80;;;;;;;-2.09;97.28;97752.89;213911;1312;22615;-77
2022/12/16 02:28:22;;;;;;;46.70;18.70;;;;;;;-2.04;97.43;97744.80;213541;1312;25274;-78
2022/12/16 02:33:47;;;;;;;52.00;20.80;;;;;;;-2.01;97.19;97736.63;213961;1312;25642;-77
2022/12/16 02:39:00;;;;;;;46.90;18.30;;;;;;;-2.01;97.46;97730.34;213889;1312;24345;-77
2022/12/16 02:44:08;;;;;;;45.20;18.70;;;;;;;-2.02;97.06;97717.14;214048;1298;25494;-78
2022/12/16 02:49:12;;;;;;;39.40;15.70;;;;;;;-2.07;97.04;97714.62;213966;1312;22490;-78
2022/12/16 02:54:16;;;;;;;40.00;17.00;;;;;;;-2.08;97.33;97708.88;214034;1312;22533;-77
2022/12/16 02:59:27;;;;;;;43.90;16.80;;;;;;;-2.05;97.62;97699.80;214169;1307;22502;-78
2022/12/16 03:04:42;;;;;;;58.70;21.70;;;;;;;-2.04;97.28;97692.05;213659;1312;22449;-77
2022/12/16 03:09:46;;;;;;;44.30;18.90;;;;;;;-2.07;97.50;97692.58;213583;1312;22991;-77
2022/12/16 03:14:51;;;;;;;49.80;19.50;;;;;;;-2.09;97.69;97692.05;213859;1312;22465;-78
2022/12/16 03:20:13;;;;;;;49.10;17.40;;;;;;;-2.12;97.65;97685.23;213905;1312;22490;-78
2022/12/16 03:25:15;;;;;;;49.00;18.50;;;;;;;-2.14;97.72;97677.70;213863;1312;22525;-79
2022/12/16 03:30:25;;;;;;;63.20;21.80;;;;;;;-2.15;97.35;97676.21;213871;1307;25479;-77
2022/12/16 03:35:47;;;;;;;63.40;22.70;;;;;;;-2.17;97.38;97666.98;213545;1312;25565;-78
2022/12/16 03:40:50;;;;;;;84.80;28.30;;;;;;;-2.20;97.65;97659.05;213918;1311;22576;-78
2022/12/16 03:46:03;;;;;;;59.20;23.20;;;;;;;-2.22;97.65;97661.95;213938;1312;23298;-78
2022/12/16 03:51:05;;;;;;;60.30;22.60;;;;;;;-2.23;97.82;97660.66;213899;1312;22611;-79
2022/12/16 03:56:07;;;;;;;57.80;21.90;;;;;;;-2.23;97.85;97662.25;213902;1312;25507;-79
2022/12/16 04:01:09;;;;;;;63.10;23.00;;;;;;;-2.25;97.68;97662.69;213839;1312;24377;-77
2022/12/16 04:06:11;;;;;;;52.00;19.00;;;;;;;-2.31;97.70;97662.05;213677;1312;25328;-77
2022/12/16 04:27:28;;;;;;;80.80;28.20;;;;;;;-2.34;98.17;97657.52;213848;1310;23791;-78
